Airports

 


Airport Name Latest METAR Visual Conditions
Cincinnati/Northern Kentucky International (CVG) KCVG 040152Z 35006KT 10SM FEW065 23/11 A3006 RMK AO2 SLP170 T02280111 VFR
John Glenn Columbus International (CMH) KCMH 040151Z 02004KT 10SM CLR 21/12 A3006 RMK AO2 SLP175 T02110122 VFR
Yeager (CRW) KCRW 040154Z 04004KT 7SM SCT017 OVC100 19/19 A3006 RMK AO2 LTG DSNT N AND NE RAE26 TSE38 SLP172 CB DSNT NE P0003 T01940194 $ VFR
James M Cox Dayton International (DAY) KDAY 040156Z 05003KT 10SM CLR 21/10 A3010 RMK AO2 SLP185 T02110100 VFR
Evansville Regional (EVV) KEVV 040154Z 35004KT 10SM CLR 22/15 A3005 RMK AO2 SLP173 T02220150 $ VFR
Indianapolis International (IND) KIND 040154Z 01005KT 10SM FEW070 22/11 A3007 RMK AO2 SLP178 T02170106 VFR
Blue Grass (LEX) KLEX 040154Z 05005KT 10SM CLR 20/12 A3005 RMK AO2 SLP169 T02000122 VFR
Louisville Muhammad Ali International (SDF) KSDF 040156Z 01006KT 10SM FEW095 24/13 A3003 RMK AO2 SLP165 T02440128 VFR
Anderson Municipal-Darlington Field (AID) KAID 040155Z AUTO 00000KT 10SM CLR 19/12 A3009 RMK AO2 T01860115 VFR
Columbus Municipal (BAK) KBAK 040145Z 00000KT 10SM CLR 18/15 A3007 RMK LAST VFR
Monroe County (BMG) KBMG 040153Z AUTO 00000KT 10SM CLR 17/14 A3007 RMK AO2 SLP178 T01670144 VFR
Wright-Patterson Air Force Base (FFO) KFFO 040156Z AUTO 00000KT 10SM CLR 20/13 A3007 RMK AO2 SLP182 T01960126 VFR
Godman Army Airfield (FTK) KFTK 040156Z AUTO 35004KT 10SM CLR 20/14 A3004 RMK AO2 SLP170 T01980137 VFR
Himsel Army Airfield (HBE) No weather for this Airport Unknown
Tri-State/Milton J Ferguson Field (HTS) KHTS 040151Z 11004KT 10SM BKN085 20/16 A3004 RMK AO2 SLP167 T02000156 VFR
Terre Haute Regional (HUF) KHUF 040153Z 34003KT 10SM CLR 18/16 A3007 RMK AO2 SLP181 T01780156 VFR
Wilmington Air Park (ILN) KILN 040154Z AUTO 03005KT 10SM CLR 18/14 A3007 RMK AO2 SLP180 T01780139 VFR
Rickenbacker International (LCK) KLCK 040155Z AUTO 01006KT 10SM CLR 22/11 A3006 RMK AO2 T02210110 VFR
Bowman Field (LOU) KLOU 040153Z AUTO 36004KT 10SM CLR 23/14 A3004 RMK AO2 SLP166 T02330139 VFR
Cincinnati Municipal Airport Lunken Field (LUK) KLUK 040153Z 00000KT 10SM FEW070 18/14 A3006 RMK AO2 SLP176 T01830139 VFR
Delaware County Regional (MIE) KMIE 040153Z 00000KT 10SM CLR 19/13 A3009 RMK AO2 SLP181 T01890133 VFR
Ohio State University (OSU) KOSU 040153Z 01005KT 10SM CLR 21/12 A3007 RMK AO2 SLP177 T02110122 VFR
Owensboro-Daviess County Regional (OWB) KOWB 040156Z 34004KT 10SM CLR 23/14 A3004 RMK AO2 SLP170 T02330144 VFR
Mid-Ohio Valley Regional (PKB) KPKB 040153Z AUTO 00000KT 10SM SCT060 18/15 A3006 RMK AO2 LTG DSNT S SLP174 T01830150 VFR
Bolton Field (TZR) KTZR 040135Z AUTO 35005KT 10SM CLR 20/13 A3007 RMK AO2 T02010126 VFR
Middlesboro-Bell County (1A6) K1A6 040155Z AUTO 00000KT 10SM SCT075 OVC120 20/18 A3005 RMK AO2 T01950181 VFR
Georgetown-Scott County Regional (27K) K27K 011015Z AUTO 31003KT OVC039 17/16 A2995 RMK AO1 VFR
Madisonville Regional (2I0) K2I0 040155Z AUTO 00000KT 10SM CLR 22/15 A3004 RMK AO2 T02180149 VFR
Mason County (3I2) K3I2 040155Z AUTO 00000KT 10SM SCT060 22/17 A3007 RMK AO2 T02160169 VFR
Knox County (4I3) K4I3 040155Z AUTO 33005KT 10SM CLR 20/10 A3010 RMK AO2 VFR
Lebanon Springfield-George Hoerter Field (6I2) K6I2 261555Z AUTO 00000KT 10SM SCT024 30/25 A3002 RMK AO2 VFR
Logan County (6L4) K6L4 040155Z AUTO 36003KT 8SM FEW045 OVC090 19/19 A3008 RMK AO2 VFR
Livingston Municipal (8A3) K8A3 040155Z AUTO 03004KT 10SM CLR 21/13 A3004 RMK A01 VFR
Kee Field (I16) KI16 040155Z AUTO 3SM BR SCT002 BKN042 BKN048 20/19 A3013 RMK AO2 T02000191 MVFR
Greene County-Lewis A Jackson Regional (I19) KI19 040135Z AUTO 00000KT 10SM CLR 20/15 A3009 RMK AO2 T02010150 PWINO VFR
Fayette County (I23) KI23 040155Z AUTO 35004KT 10SM CLR 16/14 A3007 RMK AO1 VFR
Tucker-Guthrie Memorial (I35) KI35 040155Z AUTO 00000KT 1 3/4SM SCT001 OVC041 19/19 A3006 RMK AO2 T01850185 IFR
James A Rhodes (I43) KI43 040155Z AUTO 00000KT 10SM SCT110 20/16 A3006 RMK AO2 VFR
Cincinnati West (I67) KI67 040155Z AUTO 00000KT 10SM BKN070 20/14 A3006 RMK AO1 VFR
Clermont County (I69) KI69 040155Z AUTO 00000KT 10SM CLR 21/13 A3007 RMK AO2 T02070132 VFR
Grimes Field (I74) KI74 040155Z AUTO 00000KT 10SM CLR 15/14 A3009 RMK AO2 VFR
Hancock Co-Ron Lewis Field (KY8) KKY8 040115Z AUTO 00000KT 10SM CLR 22/18 A3003 RMK A01 VFR
Brazil Clay County (0I2) No weather for this Airport Unknown
Cynthiana-Harrison County (0I8) No weather for this Airport Unknown
Holmes County (10G) No weather for this Airport Unknown
Ona Airpark (12V) No weather for this Airport Unknown
Mc Creary County (18I) No weather for this Airport Unknown
Casey Municipal (1H8) No weather for this Airport Unknown
Jamestown Municipal (2A1) No weather for this Airport Unknown
Hendricks County-Gordon Graham Fld (2R2) No weather for this Airport Unknown
Sky King (3I3) No weather for this Airport Unknown
Dayton-Phillipsburg (3I7) No weather for this Airport Unknown
Morrow County (4I9) No weather for this Airport Unknown
Sheridan (5I4) No weather for this Airport Unknown
Indianapolis Downtown (8A4) No weather for this Airport Unknown
Piqua Airport- Hartzell Field (I17) No weather for this Airport Unknown
Jackson County (I18) No weather for this Airport Unknown
Randolph County (I22) No weather for this Airport Unknown
Greensburg Municipalcipal (I34) No weather for this Airport Unknown
Richard Downing (I40) No weather for this Airport Unknown
Clinton Field (I66) No weather for this Airport Unknown
Warren County/John Lane Field (I68) No weather for this Airport Unknown
Perry County (I86) No weather for this Airport Unknown
Breckinridge County (I93) No weather for this Airport Unknown
Hardin County (I95) No weather for this Airport Unknown
Russell County (K24) No weather for this Airport Unknown
Gene Snyder (K62) No weather for this Airport Unknown
Leitchfield-Grayson Co (M20) No weather for this Airport Unknown
Taylor County (AAS) KAAS 040155Z AUTO 01004KT 10SM CLR 21/14 A3008 RMK AO1 VFR
Mount Carmel Municipal (AJG) KAJG 040155Z AUTO 02003KT 10SM CLR 19/16 A3006 RMK AO2 T01910161 VFR
Alexander Salamon (AMT) No weather for this Airport Unknown
Lima Allen County (AOH) No weather for this Airport Unknown
Neil Armstrong (AXV) KAXV 040155Z AUTO 00000KT 10SM CLR 17/13 A3009 RMK AO2 VFR
Virgil I Grissom Municipal (BFR) No weather for this Airport Unknown
Raleigh County Memorial (BKW) KBKW 040151Z AUTO 14003KT 10SM OVC070 20/13 A3012 RMK AO2 SLP174 T02000133 TSNO VFR
Mercer County (BLF) KBLF 031352Z AUTO 09006KT 10SM BKN017 OVC055 18/14 A3015 RMK AO2 SLP185 T01780139 MVFR
Samuels Field (BRY) KBRY 040155Z AUTO 00000KT 10SM CLR 20/15 A3003 RMK AO1 VFR
Williamsburg-Whitley County (BYL) KBYL 040155Z AUTO 02005KT 10SM FEW080 20/15 A3004 RMK AO1 VFR
Mettel Field (CEV) No weather for this Airport Unknown
Crawfordsville Regional (CFJ) KCFJ 040155Z AUTO 00000KT 10SM CLR 15/13 A3009 RMK AO2 T01500130 VFR
Wendell H Ford (CPF) No weather for this Airport Unknown
Lakefield (CQA) No weather for this Airport Unknown
Carmi Municipal (CUL) No weather for this Airport Unknown
Pickaway County Memorial (CYO) No weather for this Airport Unknown
Daviess County (DCY) KDCY 040155Z AUTO 00000KT 10SM CLR 19/16 A3005 RMK AO2 T01900155 VFR
Delaware Municipal - Jim Moore Field (DLZ) No weather for this Airport Unknown
Stuart Powell Field (DVK) KDVK 040135Z AUTO 00000KT 10SM CLR 19/14 A3005 RMK AO2 VFR
Ashland Regional (DWU) No weather for this Airport Unknown
Appalachian Regional (EBD) No weather for this Airport Unknown
Bellefontaine Regional (EDJ) No weather for this Airport Unknown
Henderson City-County (EHR) KEHR 040156Z AUTO 00000KT 10SM CLR 18/17 A3005 RMK AO2 SLP172 T01780172 VFR
Wayne County (EKQ) No weather for this Airport Unknown
Addington Field (EKX) No weather for this Airport Unknown
Pike County (EOP) No weather for this Airport Unknown
Eagle Creek Airpark (EYE) No weather for this Airport Unknown
Capital City (FFT) No weather for this Airport Unknown
Fleming-Mason (FGX) KFGX 040135Z AUTO 04004KT 10SM CLR 22/13 A3006 RMK AO2 T02170131 VFR
French Lick Municipal (FRH) No weather for this Airport Unknown
Gallia-Meigs Regional (GAS) No weather for this Airport Unknown
Brown County (GEO) No weather for this Airport Unknown
Shelbyville Municipal (GEZ) No weather for this Airport Unknown
Putnam County Regional (GPC) KGPC 040155Z AUTO 36005KT 10SM CLR 18/14 A3009 RMK AO2 T01840143 VFR
Butler Co Regional-Hogan Field (HAO) No weather for this Airport Unknown
Indy South Greenwood (HFY) KHFY 040135Z AUTO 06003KT 10SM CLR 18/13 A3007 RMK AO2 T01810134 VFR
Huntingburg (HNB) KHNB 040156Z AUTO 01003KT 10SM CLR 22/15 A3006 RMK AO2 SLP175 T02170150 VFR
Highland County (HOC) No weather for this Airport Unknown
Madison Municipal (IMS) No weather for this Airport Unknown
Mount Sterling-Montgomery County (IOB) KIOB 040155Z AUTO 00000KT 10SM CLR 18/16 A3007 RMK AO2 VFR
Julian Carroll (JKL) No weather for this Airport Unknown
Ohio County (JQD) No weather for this Airport Unknown
Clark Regional (JVY) KJVY 082235Z AUTO 29012G15KT 7SM +RA SCT019 SCT028 BKN041 28/24 A2985 RMK AO2 T02820237 TSNO VFR
Fairfield County (LHQ) KLHQ 040153Z AUTO 00000KT 10SM CLR 16/14 A3007 RMK AO2 SLP178 T01610144 VFR
Lonesome Pine (LNP) No weather for this Airport Unknown
London-Corbin Arpt-Magee Field (LOZ) KLOZ 040153Z AUTO 03005KT 10SM BKN080 21/16 A3005 RMK AO2 SLP163 T02110156 VFR
Lawrenceville-Vincennes International (LWV) No weather for this Airport Unknown
Dayton-Wright Brothers (MGY) KMGY 040153Z AUTO 03003KT 10SM CLR 21/12 A3007 RMK AO2 SLP176 T02060117 VFR
Indianapolis Regional (MQJ) No weather for this Airport Unknown
Union County (MRT) KMRT 040155Z AUTO 00000KT 10SM CLR 16/14 A3009 RMK AO2 T01640136 VFR
Middletown Regional/Hook Field (MWO) KMWO 040155Z AUTO 36004KT 10SM CLR 20/15 A3008 RMK AO2 T02040146 VFR
North Vernon (OVO) No weather for this Airport Unknown
Miami University (OXD) KOXD 040059Z AUTO 00003KT 10SM CLR 21/12 A3007 RMK AO2 VFR
Pike County-Hatcher Field (PBX) KPBX 040130Z AUTO 06006KT 10SM SCT050 OVC065 18/18 A3006 RMK AO2 T01800180 VFR
Greater Portsmouth Regional (PMH) KPMH 040155Z AUTO 01004KT 10SM OVC070 21/17 A3005 RMK AO2 T02120169 VFR
Edgar County (PRG) No weather for this Airport Unknown
Central Kentucky Regional (RGA) KRGA 040155Z AUTO 03004KT 10SM CLR 20/15 A3005 RMK AO2 VFR
Richmond Municipal (RID) KRID 040155Z AUTO 05004KT 10SM CLR 17/14 A3010 RMK AO2 VFR
Crawford Co (RSV) KRSV 040155Z AUTO 00000KT 10SM CLR 17/16 A3008 RMK AO2 T01740160 VFR
Ross County (RZT) KRZT 040155Z AUTO 26003KT 10SM CLR 15/15 A3007 RMK AO2 PWINO VFR
Sidney Municipal (SCA) No weather for this Airport Unknown
Scott Municipal (SCX) KSCX 040155Z AUTO 00000KT 10SM BKN060 BKN080 19/16 A3005 RMK A01 VFR
Freeman Municipal (SER) No weather for this Airport Unknown
Springfield-Beckley Municipal (SGH) No weather for this Airport Unknown
Sullivan County (SIV) No weather for this Airport Unknown
Big Sandy Regional (SJS) KSJS 040135Z AUTO 10003KT 5SM BR BKN047 OVC055 19/19 A3005 RMK AO2 T01850185 MVFR
Lake Cumberland Regional (SME) No weather for this Airport Unknown
Summersville (SXL) No weather for this Airport Unknown
Morehead-Rowan County Clyde A Thomas Regional (SYM) KSYM 040155Z AUTO 36003KT 10SM BKN080 21/13 A3006 RMK AO2 VFR
Perry County Municipal (TEL) No weather for this Airport Unknown
Sturgis Municipal (TWT) No weather for this Airport Unknown
Indianapolis Executive (TYQ) KTYQ 040155Z AUTO 00000KT 10SM CLR 16/14 A3010 RMK AO2 T01570142 VFR
Indianapolis Metropolitan (UMP) No weather for this Airport Unknown
Ohio University (UNI) KUNI 040135Z AUTO 00000KT 10SM BKN090 BKN110 20/16 A3004 RMK AO2 T02020160 VFR
Boggs Field (USW) No weather for this Airport Unknown
New Castle Henry County Marlatt Field (UWL) No weather for this Airport Unknown
Madison County (UYF) KUYF 040135Z AUTO 36004KT 10SM CLR 18/12 A3008 RMK AO2 VFR
Darke County (VES) KVES 040155Z AUTO 00000KT 10SM CLR 17/12 A3009 RMK AO2 VFR
Newark-Heath (VTA) KVTA 040154Z AUTO 00000KT 10SM CLR 19/13 A3007 RMK AO2 SLP177 T01890128 VFR
Zanesville Municipal (ZZV) KZZV 040153Z AUTO 35003KT 10SM BKN065 OVC085 21/14 A3007 RMK AO2 SLP176 T02060139 VFR
Red Stewart Airfield (40I) No weather for this Airport Unknown
Dahio Trotwood (I44) No weather for this Airport Unknown
Mad River Airpark (I54) No weather for this Airport Unknown
Moraine Air Park (I73) No weather for this Airport Unknown
Alexandria (I99) No weather for this Airport Unknown
Fry (0OH8) No weather for this Airport Unknown
Fayette County Memorial Hospital (11OH) No weather for this Airport Unknown
Uk Hospital (37KY) No weather for this Airport Unknown
Andy Barnhart Memorial (3OH0) No weather for this Airport Unknown
Medical Center Albany (45KY) No weather for this Airport Unknown
Westlake Regional Hospital (48KY) No weather for this Airport Unknown
Manchester Memorial Hospital (4KY2) No weather for this Airport Unknown
Bethesda Hospital Helistop (4OH2) No weather for this Airport Unknown
Appalachian Regional Hospital (51KY) No weather for this Airport Unknown
Bedford Medical Center (57IN) No weather for this Airport Unknown
Union Hospital (60II) No weather for this Airport Unknown
Skydive Greene County Inc (7OA7) No weather for this Airport Unknown
Methodist Hospital Of In Inc (81II) No weather for this Airport Unknown
Saint Joseph Hospital (88KY) No weather for this Airport Unknown
Riverside Methodist Hospital (9OI9) No weather for this Airport Unknown
Decatur County Memorial Hospital (IN35) No weather for this Airport Unknown
Reid Hospital (IN68) No weather for this Airport Unknown
Ball Memorial Hospital (IN74) No weather for this Airport Unknown
Iu Health Morgan (IN84) No weather for this Airport Unknown
Grant Medical Center (OH01) No weather for this Airport Unknown
Knox Communicipalty Hospital (OH04) No weather for this Airport Unknown
O'Bleness Memorial Hospital (OH23) No weather for this Airport Unknown
Schaney'S Lair (OH46) No weather for this Airport Unknown
Southern Ohio Regional Medical Center (OH62) No weather for this Airport Unknown
Troy Skypark (OH71) No weather for this Airport Unknown
Nationwide Children'S Hospital (OI95) No weather for this Airport Unknown